Whiteface, Minnesota
Current Conditions -  °F | °C
As of 2:31 AM on Friday 28 Nov 2014 (Local Time) from KEVM Reporting Station
Clear Clear  
Wind Chill:   Ceiling: Unl
Heat Index:   Visibility: 10mi
Dew Point:   Wind: 0mph
Humidity: 72%   Direction: NA
Pressure: 30.13"   Gusts: NA
Location:  47.2457°N, 92.4531°W
Report Text: KEVM 280831Z AUTO 00000KT 10SM CLR M14/M18 A3013 RMK AO2
Loading
Personal Weather Stations






























Interactive Weather Map New forecast layout! Learn more

10-Day Weather Forecast

Advertisements
Track Severe Weather on mobile